Time;durP1;ratioP1;P1;durP2;ratioP2;P2;SDS_P1;SDS_P2;PMS_P1;PMS_P2;Temp;Humidity;BMP_temperature;BMP_pressure;BME280_temperature;BME280_humidity;BME280_pressure;Samples;Min_cycle;Max_cycle;Signal;HPM_P1;HPM_P2
2022/10/06 11:28:46;;;;;;;7.45;2.98;;;;;;;20.55;42.06;101217.95;1802302;77;21051;-48
2022/10/06 11:31:24;;;;;;;5.25;2.65;;;;;;;20.67;42.14;101208.30;1783377;78;21058;-48
2022/10/06 11:33:59;;;;;;;6.00;2.75;;;;;;;20.75;41.94;101206.95;1801165;77;21126;-49
2022/10/06 11:36:43;;;;;;;9.55;3.08;;;;;;;20.82;42.20;101189.20;1797273;79;20989;-49
2022/10/06 11:39:24;;;;;;;5.35;2.52;;;;;;;20.91;42.33;101200.23;1792994;77;21054;-48
2022/10/06 11:42:06;;;;;;;7.05;2.85;;;;;;;21.03;40.63;101202.52;1779021;78;21098;-48
2022/10/06 11:44:57;;;;;;;7.47;2.87;;;;;;;21.07;40.61;101202.53;1793862;76;21031;-49
2022/10/06 11:47:28;;;;;;;5.60;2.85;;;;;;;21.11;41.84;101196.64;1830121;77;21226;-48
2022/10/06 11:49:55;;;;;;;4.87;2.62;;;;;;;21.21;41.17;101200.46;1827584;77;21046;-51
2022/10/06 11:52:27;;;;;;;5.53;2.85;;;;;;;21.27;41.20;101198.44;1814098;76;20977;-49
2022/10/06 11:55:09;;;;;;;7.97;2.90;;;;;;;21.32;40.13;101202.77;1827965;77;20995;-50
2022/10/06 11:58:11;;;;;;;7.60;2.80;;;;;;;21.38;40.83;101201.73;1779080;78;21032;-49
2022/10/06 12:00:42;;;;;;;8.35;3.60;;;;;;;21.44;40.36;101206.41;1797958;77;21026;-49
2022/10/06 12:03:33;;;;;;;8.20;3.92;;;;;;;21.50;41.07;101193.67;1808665;77;21112;-47
2022/10/06 12:06:01;;;;;;;4.95;2.72;;;;;;;21.57;40.66;101196.00;1824025;77;21003;-47
2022/10/06 12:08:37;;;;;;;7.37;2.90;;;;;;;21.59;39.88;101199.33;1836385;77;21054;-48
2022/10/06 12:11:41;;;;;;;9.70;3.25;;;;;;;21.60;39.98;101192.13;1796238;78;21023;-48
2022/10/06 12:14:30;;;;;;;5.72;2.77;;;;;;;21.57;40.00;101190.65;1802325;78;21117;-49
2022/10/06 12:20:13;;;;;;;8.20;3.22;;;;;;;21.64;39.88;101176.05;1819630;77;21011;-48
2022/10/06 12:22:50;;;;;;;9.28;2.77;;;;;;;21.70;39.93;101173.98;1793465;78;21557;-48
2022/10/06 12:25:28;;;;;;;5.65;2.85;;;;;;;21.76;40.11;101184.00;1798585;78;21054;-47
2022/10/06 12:28:12;;;;;;;6.30;2.92;;;;;;;21.81;39.66;101184.81;1789167;78;21224;-48
2022/10/06 12:31:10;;;;;;;7.95;3.10;;;;;;;21.84;39.67;101179.94;1827783;77;21557;-48
2022/10/06 12:33:40;;;;;;;5.67;2.90;;;;;;;21.90;40.34;101183.73;1804126;78;21000;-48
2022/10/06 12:36:14;;;;;;;6.30;2.72;;;;;;;22.00;39.63;101178.97;1798692;77;21038;-48
2022/10/06 12:38:45;;;;;;;7.35;2.65;;;;;;;22.08;40.09;101174.06;1729846;80;21079;-48
2022/10/06 12:41:12;;;;;;;5.78;2.75;;;;;;;22.18;40.18;101171.97;1747155;80;21437;-50
2022/10/06 12:43:56;;;;;;;4.97;2.67;;;;;;;22.29;39.77;101173.41;1730048;80;21050;-50
2022/10/06 12:46:39;;;;;;;10.00;2.50;;;;;;;22.48;39.54;101176.59;1732432;80;21082;-47
2022/10/06 12:49:35;;;;;;;5.58;2.37;;;;;;;23.41;38.00;101175.25;1714159;81;21078;-47
2022/10/06 12:52:26;;;;;;;8.23;2.77;;;;;;;24.88;36.02;101173.09;1733464;80;21513;-48
2022/10/06 12:55:15;;;;;;;4.75;2.52;;;;;;;26.45;33.55;101171.27;1746828;79;21255;-48
2022/10/06 12:57:50;;;;;;;7.37;2.67;;;;;;;27.72;31.19;101158.70;1734545;80;21058;-48
2022/10/06 13:00:33;;;;;;;5.20;2.27;;;;;;;28.76;29.50;101151.53;1725575;79;21071;-48
2022/10/06 13:03:02;;;;;;;5.90;2.35;;;;;;;29.63;28.76;101159.41;1737187;80;21102;-49
2022/10/06 13:05:28;;;;;;;5.55;2.60;;;;;;;30.47;27.59;101150.39;1740604;79;21118;-49
2022/10/06 13:07:59;;;;;;;8.20;3.00;;;;;;;31.13;25.84;101146.91;1795161;78;21367;-48
2022/10/06 13:10:28;;;;;;;6.22;2.30;;;;;;;31.29;24.63;101146.69;1811126;77;21916;-49
2022/10/06 13:12:56;;;;;;;8.53;2.60;;;;;;;31.13;24.70;101144.20;1729863;80;21208;-48
2022/10/06 13:15:29;;;;;;;6.58;2.58;;;;;;;31.13;25.05;101142.84;1733116;81;21598;-52
2022/10/06 13:18:12;;;;;;;10.90;2.80;;;;;;;31.33;25.12;101144.31;1741663;79;21139;-49
2022/10/06 13:20:52;;;;;;;5.58;2.25;;;;;;;31.63;24.92;101142.17;1748353;79;21323;-49
2022/10/06 13:23:31;;;;;;;9.83;2.60;;;;;;;31.84;24.14;101150.67;1764281;79;20983;-53
2022/10/06 13:26:09;;;;;;;12.47;3.17;;;;;;;31.93;23.97;101140.23;1809829;77;21081;-48
2022/10/06 13:28:44;;;;;;;10.45;3.12;;;;;;;31.96;24.36;101136.47;1775844;78;21047;-48
2022/10/06 13:31:33;;;;;;;7.75;2.75;;;;;;;32.16;24.15;101136.52;1808928;77;21117;-47
2022/10/06 13:34:04;;;;;;;11.70;2.40;;;;;;;32.34;23.18;101136.24;1805141;78;21112;-47
2022/10/06 13:36:36;;;;;;;6.25;2.35;;;;;;;32.47;23.56;101135.08;1786830;78;21029;-47
2022/10/06 13:39:04;;;;;;;6.75;2.80;;;;;;;32.69;23.71;101125.59;1801621;77;21042;-47
2022/10/06 13:41:37;;;;;;;5.65;2.30;;;;;;;33.04;22.95;101135.83;1782988;77;21615;-47
2022/10/06 13:44:17;;;;;;;6.58;2.87;;;;;;;33.10;22.42;101131.55;1801598;78;21510;-48
2022/10/06 13:46:50;;;;;;;9.35;2.33;;;;;;;32.87;22.25;101127.73;1798530;77;22252;-48
2022/10/06 13:49:28;;;;;;;6.95;2.85;;;;;;;32.59;22.69;101135.77;1798832;77;21031;-48
2022/10/06 13:51:59;;;;;;;5.70;3.50;;;;;;;32.33;22.81;101131.89;1797625;77;21039;-47
2022/10/06 13:54:40;;;;;;;6.42;2.37;;;;;;;32.07;22.94;101126.59;1795666;78;21073;-49
2022/10/06 13:57:39;;;;;;;7.03;2.45;;;;;;;31.84;23.30;101127.03;1807290;77;21051;-48
2022/10/06 14:00:23;;;;;;;5.28;2.70;;;;;;;31.65;23.41;101130.50;1807456;77;21830;-48
2022/10/06 14:03:06;;;;;;;8.80;2.40;;;;;;;31.43;23.60;101136.34;1788196;77;21600;-48
2022/10/06 14:05:40;;;;;;;8.73;2.70;;;;;;;31.11;24.09;101141.72;1806285;78;21078;-49
2022/10/06 14:08:18;;;;;;;7.58;2.80;;;;;;;31.08;24.16;101141.38;1803138;77;21513;-49
2022/10/06 14:10:58;;;;;;;5.00;2.42;;;;;;;31.16;24.67;101136.92;1796177;77;21047;-49
2022/10/06 14:13:31;;;;;;;5.12;2.98;;;;;;;31.52;24.34;101136.80;1805420;77;21272;-48
2022/10/06 14:16:07;;;;;;;6.20;2.70;;;;;;;31.75;24.20;101141.28;1802345;77;21426;-48
2022/10/06 14:18:45;;;;;;;7.15;2.60;;;;;;;31.87;24.05;101128.96;1812680;77;21579;-47
2022/10/06 14:21:43;;;;;;;4.25;2.52;;;;;;;31.86;23.58;101141.75;1804966;77;21521;-49
2022/10/06 14:24:26;;;;;;;5.17;2.65;;;;;;;31.58;24.01;101136.64;1800372;78;21774;-48
2022/10/06 14:27:53;;;;;;;4.85;2.30;;;;;;;30.64;24.97;101145.06;1800957;79;22806;-51
2022/10/06 14:30:19;;;;;;;6.37;2.40;;;;;;;29.95;25.74;101141.53;1773424;78;21491;-48
2022/10/06 14:32:46;;;;;;;4.92;2.67;;;;;;;29.22;26.61;101148.30;1776499;80;22198;-49
2022/10/06 14:35:12;;;;;;;6.60;3.10;;;;;;;28.57;27.28;101148.80;1781349;80;20976;-49
2022/10/06 14:37:39;;;;;;;6.15;3.00;;;;;;;27.98;28.53;101146.38;1782296;78;21079;-49
2022/10/06 14:40:08;;;;;;;5.15;2.80;;;;;;;27.68;29.07;101143.45;1779804;79;21060;-49
2022/10/06 14:42:34;;;;;;;6.67;3.08;;;;;;;27.54;29.79;101148.11;1774620;78;21004;-49
2022/10/06 14:45:02;;;;;;;6.47;3.12;;;;;;;27.34;29.94;101155.50;1777982;78;21242;-49
2022/10/06 14:47:30;;;;;;;7.45;2.92;;;;;;;26.88;30.46;101147.34;1777586;78;21689;-49
2022/10/06 14:49:56;;;;;;;6.03;3.08;;;;;;;26.33;31.22;101154.88;1777235;78;21025;-49
2022/10/06 14:52:23;;;;;;;10.35;3.33;;;;;;;25.83;31.98;101151.19;1780944;78;21062;-51
2022/10/06 14:54:50;;;;;;;7.45;2.60;;;;;;;25.53;32.56;101150.72;1778748;78;21105;-49
2022/10/06 14:57:17;;;;;;;6.03;3.20;;;;;;;25.39;32.88;101165.49;1785075;78;21230;-49
2022/10/06 14:59:43;;;;;;;5.75;2.58;;;;;;;25.01;33.39;101164.56;1772034;78;21034;-49
2022/10/06 15:02:11;;;;;;;6.33;3.35;;;;;;;24.59;34.20;101165.04;1773732;78;21117;-49
2022/10/06 15:04:37;;;;;;;5.72;3.10;;;;;;;24.25;34.94;101173.86;1778905;80;21118;-48
2022/10/06 15:09:48;;;;;;;5.50;2.73;;;;;;;23.61;36.21;101178.69;1769585;79;21161;-48
2022/10/06 15:12:16;;;;;;;11.05;3.50;;;;;;;23.30;36.83;101179.75;1777758;78;21027;-48
2022/10/06 15:14:44;;;;;;;7.95;3.47;;;;;;;23.04;37.32;101182.39;1770177;79;21347;-48
2022/10/06 15:17:11;;;;;;;6.45;3.75;;;;;;;22.81;37.93;101186.50;1771913;78;21066;-49
2022/10/06 15:19:39;;;;;;;11.20;3.87;;;;;;;22.59;38.47;101189.57;1769605;80;21519;-50
2022/10/06 15:22:07;;;;;;;10.93;5.62;;;;;;;22.41;39.04;101194.77;1777070;78;21195;-48
2022/10/06 15:24:34;;;;;;;10.18;4.40;;;;;;;22.25;39.42;101194.88;1785078;78;21129;-51
2022/10/06 15:29:47;;;;;;;7.00;4.12;;;;;;;21.95;40.33;101208.66;1702343;82;21047;-53
2022/10/06 15:32:14;;;;;;;8.40;4.00;;;;;;;21.78;40.94;101213.29;1758431;78;21067;-50
2022/10/06 15:34:40;;;;;;;9.88;3.92;;;;;;;21.60;41.32;101202.35;1757776;80;21546;-49
2022/10/06 15:37:07;;;;;;;10.10;4.35;;;;;;;21.49;41.59;101223.64;1772159;79;21592;-49
2022/10/06 15:39:35;;;;;;;7.90;4.55;;;;;;;21.37;42.14;101221.47;1772230;80;21038;-49
2022/10/06 15:42:02;;;;;;;14.95;4.30;;;;;;;21.23;42.45;101220.36;1768641;79;21065;-49
2022/10/06 15:44:33;;;;;;;19.07;5.45;;;;;;;21.10;42.80;101228.95;1794353;79;21042;-49
2022/10/06 15:47:00;;;;;;;10.18;4.37;;;;;;;20.96;43.23;101232.66;1778600;79;21152;-49
2022/10/06 15:49:28;;;;;;;12.65;4.75;;;;;;;20.88;43.51;101239.36;1790138;79;21036;-50
2022/10/06 15:51:58;;;;;;;14.00;4.45;;;;;;;20.77;44.67;101239.19;1792276;79;21042;-51
2022/10/06 15:54:32;;;;;;;9.00;3.80;;;;;;;20.58;45.25;101242.20;1782901;79;21102;-52
2022/10/06 15:57:01;;;;;;;9.95;4.67;;;;;;;20.45;45.45;101246.70;1788333;79;21026;-49
2022/10/06 15:59:31;;;;;;;19.50;6.15;;;;;;;20.32;46.10;101251.70;1733396;82;21877;-49
2022/10/06 16:02:07;;;;;;;24.65;5.60;;;;;;;20.15;47.13;101248.18;1719820;82;21522;-50
2022/10/06 16:07:07;;;;;;;6.80;3.90;;;;;;;19.76;47.80;101262.11;1707239;82;21035;-49
2022/10/06 16:09:38;;;;;;;6.97;4.00;;;;;;;19.57;47.55;101260.01;1706440;82;21633;-49
2022/10/06 16:12:06;;;;;;;15.05;4.90;;;;;;;19.43;47.86;101265.94;1771087;79;21181;-49
2022/10/06 16:14:33;;;;;;;10.93;4.78;;;;;;;19.31;48.21;101270.71;1764211;79;21515;-49
2022/10/06 16:17:04;;;;;;;9.38;4.75;;;;;;;19.20;48.47;101273.64;1771223;79;21011;-49
2022/10/06 16:19:31;;;;;;;9.93;5.05;;;;;;;19.09;48.84;101276.09;1771731;79;21042;-49
2022/10/06 16:21:59;;;;;;;8.13;5.15;;;;;;;18.96;48.97;101282.33;1770913;79;21135;-49
2022/10/06 16:24:26;;;;;;;9.85;5.60;;;;;;;18.84;49.38;101281.75;1768620;80;21941;-50
2022/10/06 16:26:53;;;;;;;8.75;5.20;;;;;;;18.76;49.61;101289.14;1769299;79;21042;-49
2022/10/06 16:29:20;;;;;;;12.30;5.10;;;;;;;18.67;49.95;101294.08;1768206;80;21100;-50
2022/10/06 16:31:47;;;;;;;8.35;4.50;;;;;;;18.59;50.34;101298.00;1770479;79;21034;-49
2022/10/06 16:34:15;;;;;;;9.43;4.87;;;;;;;18.51;50.84;101298.78;1771827;80;21534;-49
2022/10/06 16:36:44;;;;;;;9.50;5.20;;;;;;;18.38;50.99;101295.98;1779546;79;21173;-49
2022/10/06 16:39:17;;;;;;;11.33;5.65;;;;;;;18.24;51.26;101299.19;1771289;79;21094;-50
2022/10/06 16:41:45;;;;;;;8.03;5.05;;;;;;;18.14;51.52;101302.38;1769890;79;21142;-49
2022/10/06 16:44:12;;;;;;;7.62;5.15;;;;;;;18.04;51.78;101309.13;1767926;80;21055;-49
2022/10/06 16:46:39;;;;;;;14.95;6.33;;;;;;;17.95;52.08;101305.50;1760420;79;21261;-49
2022/10/06 16:49:07;;;;;;;11.75;6.15;;;;;;;17.84;52.33;101307.02;1759179;80;21144;-49
2022/10/06 16:51:40;;;;;;;10.08;6.00;;;;;;;17.77;52.63;101304.58;1770888;79;21085;-50
2022/10/06 16:54:09;;;;;;;8.68;5.35;;;;;;;17.70;52.81;101308.36;1773337;79;21087;-49
2022/10/06 16:56:41;;;;;;;9.93;5.85;;;;;;;17.66;52.98;101307.45;1763089;79;21133;-49
2022/10/06 16:59:15;;;;;;;9.40;5.47;;;;;;;17.57;53.19;101307.34;1773009;80;21481;-48
2022/10/06 17:01:42;;;;;;;9.05;5.65;;;;;;;17.50;53.47;101318.23;1772875;79;21371;-49
2022/10/06 17:04:15;;;;;;;12.53;5.97;;;;;;;17.43;53.80;101310.47;1767143;80;21226;-49
2022/10/06 17:06:50;;;;;;;10.95;5.70;;;;;;;17.36;54.00;101312.03;1765025;79;21043;-50
2022/10/06 17:09:19;;;;;;;10.53;5.72;;;;;;;17.27;54.22;101315.91;1778329;79;21058;-49
2022/10/06 17:11:49;;;;;;;10.72;5.92;;;;;;;17.22;54.41;101322.15;1764977;79;21066;-49
2022/10/06 17:14:16;;;;;;;7.90;5.37;;;;;;;17.15;54.71;101321.05;1765568;79;21071;-49
2022/10/06 17:16:44;;;;;;;9.75;5.83;;;;;;;17.07;54.98;101321.75;1759695;79;21568;-49
2022/10/06 17:19:12;;;;;;;10.70;5.60;;;;;;;16.99;54.96;101319.46;1766092;79;21066;-49
2022/10/06 17:21:40;;;;;;;13.22;5.87;;;;;;;16.94;55.15;101315.89;1782188;79;21153;-49
2022/10/06 17:24:07;;;;;;;11.70;6.05;;;;;;;16.90;55.23;101319.33;1816999;78;21054;-49
2022/10/06 17:26:39;;;;;;;13.50;6.42;;;;;;;16.85;55.40;101318.91;1797528;79;21074;-49
2022/10/06 17:29:20;;;;;;;11.63;6.78;;;;;;;16.81;55.67;101328.13;1761989;79;21055;-49
2022/10/06 17:31:48;;;;;;;8.78;5.85;;;;;;;16.76;55.88;101327.72;1767980;80;21003;-49
2022/10/06 17:34:17;;;;;;;10.08;5.95;;;;;;;16.70;55.86;101331.75;1773405;80;21030;-49
2022/10/06 17:36:47;;;;;;;9.85;5.87;;;;;;;16.64;56.18;101330.14;1772533;79;21153;-49
2022/10/06 17:39:14;;;;;;;10.13;6.12;;;;;;;16.59;56.58;101336.36;1731285;81;21141;-49
2022/10/06 17:41:43;;;;;;;11.00;5.90;;;;;;;16.51;56.85;101332.59;1716884;81;21023;-49
2022/10/06 17:44:21;;;;;;;12.85;7.08;;;;;;;16.46;57.14;101337.48;1719327;83;21050;-49
2022/10/06 17:46:50;;;;;;;9.58;6.60;;;;;;;16.39;57.46;101339.02;1716142;81;21102;-49
2022/10/06 17:49:19;;;;;;;17.80;6.70;;;;;;;16.32;57.67;101337.86;1720653;81;21101;-49
2022/10/06 17:51:48;;;;;;;9.50;6.12;;;;;;;16.25;57.93;101343.38;1707080;82;21126;-48
2022/10/06 17:54:18;;;;;;;12.47;6.97;;;;;;;16.21;58.16;101348.13;1725983;83;21109;-48
2022/10/06 17:56:49;;;;;;;11.55;7.37;;;;;;;16.16;58.08;101349.85;1722632;81;21120;-48
2022/10/06 17:59:20;;;;;;;9.90;6.65;;;;;;;16.13;58.15;101355.92;1716871;83;21035;-48
2022/10/06 18:01:46;;;;;;;13.18;6.90;;;;;;;16.07;58.33;101350.68;1723095;82;21074;-47
2022/10/06 18:04:17;;;;;;;11.63;6.70;;;;;;;16.01;58.81;101357.02;1716723;81;21234;-48
2022/10/06 18:06:44;;;;;;;14.65;6.42;;;;;;;15.92;59.08;101353.33;1711735;82;21141;-48
2022/10/06 18:09:11;;;;;;;12.28;6.87;;;;;;;15.84;59.39;101361.14;1712613;83;21050;-47
2022/10/06 18:11:40;;;;;;;11.10;6.65;;;;;;;15.77;59.58;101364.32;1714499;83;21082;-48
2022/10/06 18:14:16;;;;;;;11.28;6.20;;;;;;;15.76;59.67;101364.45;1701340;82;21086;-48
2022/10/06 18:16:55;;;;;;;13.83;6.37;;;;;;;15.72;59.41;101362.52;1716035;81;21451;-48
2022/10/06 18:19:28;;;;;;;12.80;6.97;;;;;;;15.70;59.26;101367.59;1726638;82;20992;-48
2022/10/06 18:21:59;;;;;;;12.85;7.47;;;;;;;15.67;59.12;101371.83;1707137;82;21070;-48
2022/10/06 18:24:28;;;;;;;13.40;7.30;;;;;;;15.65;58.92;101370.66;1714952;82;21019;-47
2022/10/06 18:26:57;;;;;;;11.73;6.87;;;;;;;15.62;58.93;101374.90;1721886;81;21088;-47
2022/10/06 18:29:32;;;;;;;12.20;7.22;;;;;;;15.58;58.95;101376.12;1706473;83;21059;-48
2022/10/06 18:31:58;;;;;;;10.68;7.15;;;;;;;15.55;59.09;101381.67;1705272;81;21057;-48
2022/10/06 18:34:25;;;;;;;10.08;6.50;;;;;;;15.49;59.17;101378.24;1707217;81;21072;-47
2022/10/06 18:36:53;;;;;;;15.70;7.78;;;;;;;15.46;59.25;101381.16;1803571;79;21040;-48
2022/10/06 18:39:19;;;;;;;12.25;7.40;;;;;;;15.41;59.33;101385.52;1764554;79;21123;-49
2022/10/06 18:41:49;;;;;;;13.78;7.67;;;;;;;15.40;59.41;101390.48;1754166;80;21117;-48
2022/10/06 18:48:53;;;;;;;12.33;7.90;;;;;;;15.37;59.47;101390.73;1763513;79;20996;-48
2022/10/06 18:49:27;;;;;;;10.75;7.05;;;;;;;15.34;59.75;101396.30;1760861;79;21014;-48
2022/10/06 18:51:54;;;;;;;10.78;6.97;;;;;;;15.33;59.85;101395.46;1760500;79;21056;-49
2022/10/06 18:54:26;;;;;;;11.95;6.83;;;;;;;15.33;59.97;101402.09;1761378;79;21157;-47
2022/10/06 18:56:54;;;;;;;13.75;6.92;;;;;;;15.41;59.90;101399.61;1762840;79;21055;-48
2022/10/06 18:59:25;;;;;;;11.48;6.22;;;;;;;15.46;59.83;101403.70;1772255;79;21047;-48
2022/10/06 19:01:53;;;;;;;10.35;6.47;;;;;;;15.46;59.88;101407.18;1762438;79;21019;-47
2022/10/06 19:04:21;;;;;;;13.05;7.28;;;;;;;15.48;59.89;101408.38;1767208;79;21583;-48
2022/10/06 19:06:50;;;;;;;13.38;7.37;;;;;;;15.49;59.96;101416.20;1760437;80;21230;-48
2022/10/06 19:09:18;;;;;;;12.30;6.72;;;;;;;15.49;59.97;101413.55;1742806;80;21207;-48
2022/10/06 19:11:50;;;;;;;11.30;7.60;;;;;;;15.51;60.01;101421.39;1755342;80;21092;-48
2022/10/06 19:14:29;;;;;;;12.73;7.40;;;;;;;15.51;60.00;101419.56;1765605;79;21021;-48
2022/10/06 19:17:03;;;;;;;14.38;6.92;;;;;;;15.51;60.12;101422.72;1764182;79;21098;-48
2022/10/06 19:19:30;;;;;;;12.10;6.28;;;;;;;15.49;60.21;101424.16;1764766;79;21265;-48
2022/10/06 19:22:00;;;;;;;12.90;6.90;;;;;;;15.53;60.15;101430.05;1759067;79;20982;-48
2022/10/06 19:24:35;;;;;;;11.55;7.00;;;;;;;15.58;60.13;101437.99;1761549;79;21075;-48
2022/10/06 19:27:03;;;;;;;17.80;7.30;;;;;;;15.61;60.04;101434.22;1755807;80;21105;-48
2022/10/06 19:29:35;;;;;;;12.78;7.85;;;;;;;15.59;60.16;101431.70;1757157;79;21014;-48
2022/10/06 19:31:58;;;;;;;10.10;7.67;;;;;;;15.60;60.22;101437.84;1763422;79;21326;-48
2022/10/06 19:34:25;;;;;;;12.63;6.92;;;;;;;15.58;60.29;101438.45;1758744;79;21056;-48
2022/10/06 19:36:51;;;;;;;10.58;7.05;;;;;;;15.54;60.37;101437.05;1770680;80;21039;-48
2022/10/06 19:39:24;;;;;;;12.35;7.05;;;;;;;15.51;60.49;101433.33;1758137;79;21067;-47
2022/10/06 19:44:37;;;;;;;14.20;7.80;;;;;;;15.41;60.89;101435.91;1763866;79;21557;-48
2022/10/06 19:47:05;;;;;;;12.65;7.28;;;;;;;15.34;61.03;101438.22;1767814;79;21058;-47
2022/10/06 19:49:34;;;;;;;14.25;7.10;;;;;;;15.33;61.08;101433.05;1765658;79;21055;-47
2022/10/06 19:52:02;;;;;;;14.87;7.95;;;;;;;15.35;61.14;101434.61;1760205;80;21105;-47
2022/10/06 19:54:29;;;;;;;16.23;8.00;;;;;;;15.36;61.21;101445.56;1756448;79;21019;-48
2022/10/06 19:56:56;;;;;;;11.15;6.70;;;;;;;15.34;61.25;101444.86;1758440;79;21240;-48
2022/10/06 19:59:23;;;;;;;11.63;7.53;;;;;;;15.30;61.30;101443.44;1772785;79;21023;-47
2022/10/06 20:01:51;;;;;;;9.63;7.25;;;;;;;15.27;61.34;101448.16;1769523;80;21068;-47
2022/10/06 20:04:18;;;;;;;12.73;7.75;;;;;;;15.25;61.41;101446.97;1769470;79;21538;-48
2022/10/06 20:06:45;;;;;;;10.32;7.30;;;;;;;15.22;61.51;101459.14;1767242;79;21028;-48
2022/10/06 20:09:15;;;;;;;13.85;6.67;;;;;;;15.18;61.66;101454.58;1763249;80;21234;-47
2022/10/06 20:11:44;;;;;;;10.75;7.10;;;;;;;15.15;61.83;101460.13;1754045;79;21043;-48
2022/10/06 20:14:16;;;;;;;13.72;6.65;;;;;;;15.15;61.89;101458.80;1748599;79;21550;-47
2022/10/06 20:16:43;;;;;;;15.15;7.70;;;;;;;15.22;61.90;101459.14;1786630;79;21062;-48
2022/10/06 20:19:10;;;;;;;10.98;7.12;;;;;;;15.27;61.87;101468.88;1779951;79;21031;-47
2022/10/06 20:21:38;;;;;;;14.95;7.45;;;;;;;15.31;61.93;101469.47;1791568;79;20996;-49
2022/10/06 20:24:08;;;;;;;11.40;7.55;;;;;;;15.33;61.96;101471.03;1728858;83;21059;-47
2022/10/06 20:26:38;;;;;;;12.63;7.10;;;;;;;15.37;61.91;101475.10;1777268;79;22212;-48
2022/10/06 20:29:08;;;;;;;10.90;7.20;;;;;;;15.38;61.89;101474.14;1774228;79;21513;-48
2022/10/06 20:31:39;;;;;;;11.68;7.58;;;;;;;15.32;61.97;101473.81;1757960;79;21003;-48
2022/10/06 20:34:07;;;;;;;11.73;7.05;;;;;;;15.25;62.17;101478.78;1759262;79;21244;-48
2022/10/06 20:36:36;;;;;;;10.50;6.70;;;;;;;15.19;62.36;101482.75;1769409;79;21008;-47
2022/10/06 20:41:54;;;;;;;10.80;7.47;;;;;;;15.18;62.50;101486.39;1764176;79;21517;-48
2022/10/06 20:44:21;;;;;;;10.78;7.00;;;;;;;15.16;62.75;101491.45;1766853;80;20991;-47
2022/10/06 20:46:48;;;;;;;10.00;6.62;;;;;;;15.18;62.85;101491.70;1759251;79;21115;-47
2022/10/06 20:49:16;;;;;;;12.40;7.62;;;;;;;15.14;62.96;101496.88;1756443;80;21096;-48
2022/10/06 20:51:46;;;;;;;11.75;7.40;;;;;;;15.10;63.12;101497.27;1761101;79;21005;-48
2022/10/06 20:54:15;;;;;;;13.32;7.22;;;;;;;15.09;63.22;101500.88;1757834;79;21044;-48
2022/10/06 20:56:42;;;;;;;10.18;7.25;;;;;;;15.02;63.36;101504.52;1770617;79;21077;-47
2022/10/06 20:59:10;;;;;;;9.03;6.37;;;;;;;14.98;63.61;101507.90;1728507;82;21257;-48
2022/10/06 21:01:39;;;;;;;10.78;7.50;;;;;;;15.01;63.67;101510.77;1759459;79;21085;-48
2022/10/06 21:04:06;;;;;;;9.65;7.30;;;;;;;15.03;63.79;101510.19;1750722;80;21610;-48
2022/10/06 21:06:32;;;;;;;12.23;7.03;;;;;;;15.00;63.94;101507.77;1751009;79;22336;-48
2022/10/06 21:09:00;;;;;;;15.35;7.85;;;;;;;15.02;64.03;101513.79;1763295;79;21054;-48
2022/10/06 21:11:27;;;;;;;11.63;7.53;;;;;;;14.98;64.14;101518.50;1762998;79;21241;-48
2022/10/06 21:13:56;;;;;;;12.50;7.55;;;;;;;14.94;64.29;101519.70;1773245;80;21031;-48
2022/10/06 21:16:26;;;;;;;10.75;6.80;;;;;;;14.89;64.45;101519.22;1774466;79;21023;-48
2022/10/06 21:18:53;;;;;;;12.33;7.28;;;;;;;14.88;64.55;101520.20;1768962;80;21095;-48
2022/10/06 21:21:20;;;;;;;10.72;6.90;;;;;;;14.93;64.46;101518.49;1772087;79;21296;-48
2022/10/06 21:23:48;;;;;;;10.98;6.55;;;;;;;14.93;64.59;101524.66;1757186;80;21227;-48
2022/10/06 21:26:18;;;;;;;15.28;6.83;;;;;;;14.92;64.70;101522.95;1767530;79;21625;-48
2022/10/06 21:28:45;;;;;;;10.32;7.20;;;;;;;14.90;64.79;101524.90;1768485;79;21102;-48
2022/10/06 21:31:15;;;;;;;9.58;7.00;;;;;;;14.90;64.88;101528.87;1772239;79;21058;-48
2022/10/06 21:33:43;;;;;;;11.45;7.22;;;;;;;14.85;64.96;101531.05;1755143;80;21069;-48
2022/10/06 21:36:15;;;;;;;10.53;6.65;;;;;;;14.82;65.11;101529.97;1768805;79;22262;-48
2022/10/06 21:38:47;;;;;;;10.43;7.28;;;;;;;14.80;65.19;101527.92;1763016;80;21519;-48
2022/10/06 21:41:47;;;;;;;10.55;7.87;;;;;;;14.83;65.17;101535.14;1753762;79;21727;-48
2022/10/06 21:44:07;;;;;;;11.88;7.37;;;;;;;14.86;65.19;101534.91;1740173;80;24830;-48
2022/10/06 21:46:41;;;;;;;11.47;7.13;;;;;;;14.85;65.31;101537.18;1761405;79;21086;-48
2022/10/06 21:49:13;;;;;;;16.20;7.35;;;;;;;14.84;65.43;101538.63;1760063;80;21240;-48
2022/10/06 21:51:40;;;;;;;10.95;7.80;;;;;;;14.80;65.55;101538.03;1761150;80;21424;-48
2022/10/06 21:54:10;;;;;;;12.33;6.85;;;;;;;14.83;65.43;101542.27;1761536;79;21507;-48
2022/10/06 21:56:38;;;;;;;11.90;7.03;;;;;;;14.77;65.67;101544.06;1759321;79;21118;-48
2022/10/06 21:59:04;;;;;;;9.85;7.35;;;;;;;14.81;65.60;101538.41;1762778;79;21125;-48
2022/10/06 22:01:35;;;;;;;7.85;6.58;;;;;;;14.84;65.63;101538.63;1762311;80;21624;-48
2022/10/06 22:04:02;;;;;;;10.63;6.62;;;;;;;14.85;65.65;101541.16;1759164;79;21066;-48
2022/10/06 22:06:31;;;;;;;10.72;7.67;;;;;;;14.84;65.63;101547.90;1759784;80;21505;-48
2022/10/06 22:08:58;;;;;;;10.38;6.97;;;;;;;14.80;65.69;101553.09;1763263;79;21071;-47
2022/10/06 22:11:33;;;;;;;11.63;7.62;;;;;;;14.73;65.85;101550.09;1758844;79;21566;-48
2022/10/06 22:14:01;;;;;;;12.28;7.20;;;;;;;14.67;66.04;101553.22;1755518;79;21101;-48
2022/10/06 22:16:30;;;;;;;9.30;6.80;;;;;;;14.64;66.17;101559.61;1767063;79;21094;-48
2022/10/06 22:18:57;;;;;;;11.78;7.22;;;;;;;14.67;66.14;101547.42;1764403;79;21050;-48
2022/10/06 22:21:34;;;;;;;10.25;7.03;;;;;;;14.70;66.23;101557.44;1757653;80;21662;-48
2022/10/06 22:24:05;;;;;;;12.40;7.60;;;;;;;14.67;66.35;101564.64;1751158;79;21127;-48
2022/10/06 22:26:32;;;;;;;12.13;7.72;;;;;;;14.64;66.53;101564.91;1770867;80;21207;-48
2022/10/06 22:28:59;;;;;;;11.12;7.72;;;;;;;14.60;66.67;101564.77;1791154;79;21577;-48
2022/10/06 22:31:26;;;;;;;10.32;6.65;;;;;;;14.58;66.82;101557.41;1780345;80;21050;-48
2022/10/06 22:33:58;;;;;;;13.28;6.53;;;;;;;14.59;66.89;101559.13;1759069;79;21526;-47
2022/10/06 22:36:25;;;;;;;9.78;6.42;;;;;;;14.64;66.84;101562.27;1767081;79;21545;-47
2022/10/06 22:38:52;;;;;;;13.03;7.53;;;;;;;14.67;66.90;101567.30;1708610;81;21301;-47
2022/10/06 22:41:19;;;;;;;9.80;7.40;;;;;;;14.67;67.00;101573.91;1701844;83;21024;-47
2022/10/06 22:43:46;;;;;;;13.10;7.28;;;;;;;14.68;67.09;101574.78;1719062;82;21053;-47
2022/10/06 22:46:13;;;;;;;11.08;7.17;;;;;;;14.67;67.20;101581.03;1717928;83;21012;-47
2022/10/06 22:48:40;;;;;;;11.18;6.70;;;;;;;14.67;67.26;101583.19;1730480;81;21122;-48
2022/10/06 22:51:07;;;;;;;11.00;7.47;;;;;;;14.68;67.23;101578.27;1728676;81;21320;-48
2022/10/06 22:53:35;;;;;;;11.20;6.83;;;;;;;14.75;67.14;101583.09;1736862;80;21050;-48
2022/10/06 22:56:02;;;;;;;9.73;6.92;;;;;;;14.79;67.15;101579.22;1726309;82;21063;-48
2022/10/06 22:58:29;;;;;;;12.53;7.28;;;;;;;14.79;67.18;101579.22;1704635;82;21137;-47
2022/10/06 23:00:56;;;;;;;13.68;7.72;;;;;;;14.78;67.27;101584.17;1724317;82;21038;-47
2022/10/06 23:03:23;;;;;;;12.33;7.12;;;;;;;14.77;67.33;101590.43;1732720;82;21208;-47
2022/10/06 23:05:56;;;;;;;15.65;6.72;;;;;;;14.73;67.49;101585.02;1701610;83;21055;-47
2022/10/06 23:08:23;;;;;;;11.03;7.37;;;;;;;14.76;67.47;101594.03;1712549;82;21057;-48
2022/10/06 23:10:50;;;;;;;10.72;7.25;;;;;;;14.81;67.44;101591.86;1715990;82;21059;-47
2022/10/06 23:13:20;;;;;;;10.75;7.45;;;;;;;14.84;67.43;101596.92;1736407;81;21095;-47
2022/10/06 23:15:48;;;;;;;11.65;7.70;;;;;;;14.82;67.46;101598.36;1718890;83;21308;-47
2022/10/06 23:18:14;;;;;;;12.33;6.92;;;;;;;14.82;67.48;101597.04;1718739;81;21039;-47
2022/10/06 23:20:42;;;;;;;13.13;7.28;;;;;;;14.80;67.56;101595.00;1719790;83;21066;-47
2022/10/06 23:23:10;;;;;;;11.68;7.30;;;;;;;14.79;67.64;101596.45;1728926;81;21069;-48
2022/10/06 23:25:38;;;;;;;9.15;7.00;;;;;;;14.83;67.58;101597.91;1736617;82;21047;-47
2022/10/06 23:28:04;;;;;;;12.90;7.83;;;;;;;14.88;67.56;101601.03;1732848;81;21295;-47